createdAt,value
2022-12-05T00:00:32.752Z,37.40
2022-12-05T00:02:59.182Z,38.28
2022-12-05T00:05:25.561Z,39.15
2022-12-05T00:07:52.004Z,38.05
2022-12-05T00:10:18.485Z,38.38
2022-12-05T00:12:45.031Z,38.30
2022-12-05T00:15:12.539Z,37.10
2022-12-05T00:17:40.771Z,37.80
2022-12-05T00:20:08.527Z,36.20
2022-12-05T00:22:38.476Z,35.80
2022-12-05T00:25:06.412Z,36.05
2022-12-05T00:27:33.241Z,37.28
2022-12-05T00:30:00.220Z,36.08
2022-12-05T00:32:29.204Z,37.10
2022-12-05T00:34:55.795Z,36.03
2022-12-05T00:37:22.209Z,36.22
2022-12-05T00:39:48.595Z,36.30
2022-12-05T00:42:15.026Z,38.47
2022-12-05T00:44:41.699Z,36.97
2022-12-05T00:47:08.066Z,35.80
2022-12-05T00:49:34.441Z,35.25
2022-12-05T00:52:00.858Z,36.38
2022-12-05T00:54:27.299Z,34.95
2022-12-05T00:56:56.204Z,36.60
2022-12-05T00:59:23.055Z,35.90
2022-12-05T01:01:50.759Z,36.30
2022-12-05T01:04:25.096Z,37.53
2022-12-05T01:06:54.870Z,35.92
2022-12-05T01:09:21.856Z,37.65
2022-12-05T01:11:49.136Z,36.67
2022-12-05T01:14:17.222Z,36.35
2022-12-05T01:16:45.735Z,39.60
2022-12-05T01:19:18.518Z,37.65
2022-12-05T01:21:45.011Z,37.60
2022-12-05T01:24:11.813Z,35.83
2022-12-05T01:26:38.506Z,38.35
2022-12-05T01:29:05.114Z,37.63
2022-12-05T01:31:34.089Z,36.33
2022-12-05T01:34:03.248Z,38.10
2022-12-05T01:36:30.163Z,37.38
2022-12-05T01:38:57.007Z,37.67
2022-12-05T01:41:32.587Z,37.08
2022-12-05T01:44:06.047Z,36.80
2022-12-05T01:46:34.920Z,35.53
2022-12-05T01:49:06.708Z,37.22
2022-12-05T01:51:33.919Z,36.45
2022-12-05T01:54:01.153Z,34.22
2022-12-05T01:56:27.664Z,34.65
2022-12-05T01:58:55.408Z,33.50
2022-12-05T02:01:21.903Z,32.60
2022-12-05T02:03:50.547Z,34.17
2022-12-05T02:06:16.980Z,34.40
2022-12-05T02:08:44.604Z,32.30
2022-12-05T02:11:11.011Z,32.50
2022-12-05T02:13:48.962Z,34.53
2022-12-05T02:16:18.394Z,33.65
2022-12-05T02:19:18.960Z,31.75
2022-12-05T02:22:10.327Z,34.25
2022-12-05T02:24:50.745Z,31.90
2022-12-05T02:27:43.215Z,31.95
2022-12-05T02:30:20.045Z,31.83
2022-12-05T02:33:24.472Z,31.45
2022-12-05T02:36:09.058Z,31.10
2022-12-05T02:39:05.024Z,30.50
2022-12-05T02:41:41.470Z,31.67
2022-12-05T02:44:14.750Z,30.90
2022-12-05T02:46:41.699Z,33.33
2022-12-05T02:49:10.643Z,31.90
2022-12-05T02:51:43.444Z,32.63
2022-12-05T02:54:12.679Z,30.85
2022-12-05T02:56:40.818Z,32.42
2022-12-05T02:59:07.211Z,31.52
2022-12-05T03:01:33.743Z,31.70
2022-12-05T03:04:02.526Z,32.92
2022-12-05T03:06:50.979Z,31.63
2022-12-05T03:09:43.022Z,31.27
2022-12-05T03:12:14.456Z,25.10
2022-12-05T03:14:54.600Z,33.38
2022-12-05T03:17:26.950Z,32.80
2022-12-05T03:19:53.296Z,32.15
2022-12-05T03:22:30.520Z,33.05
2022-12-05T03:24:57.088Z,33.38
2022-12-05T03:27:57.357Z,32.97
2022-12-05T03:30:23.885Z,31.45
2022-12-05T03:33:07.733Z,32.83
2022-12-05T03:35:47.785Z,34.30
2022-12-05T03:38:17.025Z,33.03
2022-12-05T03:40:53.898Z,33.17
2022-12-05T03:43:25.963Z,31.70
2022-12-05T03:46:03.368Z,33.03
2022-12-05T03:48:39.715Z,33.33
2022-12-05T03:51:07.607Z,33.17
2022-12-05T03:53:44.879Z,33.40
2022-12-05T03:56:16.030Z,32.58
2022-12-05T03:58:58.608Z,32.35
2022-12-05T04:01:27.365Z,30.70
2022-12-05T04:03:57.526Z,31.08
2022-12-05T04:06:29.311Z,32.55
2022-12-05T04:09:06.046Z,31.67
2022-12-05T04:11:36.443Z,34.35
2022-12-05T04:14:07.979Z,32.13
2022-12-05T04:17:05.672Z,33.38
2022-12-05T04:20:07.187Z,32.53
2022-12-05T04:22:34.637Z,32.83
2022-12-05T04:25:21.795Z,33.80
2022-12-05T04:28:08.939Z,34.78
2022-12-05T04:30:43.462Z,33.47
2022-12-05T04:33:36.790Z,32.45
2022-12-05T04:36:08.070Z,32.35
2022-12-05T04:38:57.692Z,32.47
2022-12-05T04:41:34.490Z,33.20
2022-12-05T04:44:05.755Z,32.80
2022-12-05T04:46:33.877Z,32.05
2022-12-05T04:49:02.285Z,31.98
2022-12-05T04:51:30.504Z,31.73
2022-12-05T04:54:00.798Z,31.65
2022-12-05T04:56:31.466Z,32.00
2022-12-05T04:58:57.978Z,30.83
2022-12-05T05:01:47.514Z,29.95
2022-12-05T05:04:17.683Z,29.27
2022-12-05T05:06:44.144Z,30.42
2022-12-05T05:09:11.212Z,29.75
2022-12-05T05:11:37.684Z,31.27
2022-12-05T05:14:04.716Z,29.55
2022-12-05T05:16:37.025Z,29.70
2022-12-05T05:19:04.140Z,29.35
2022-12-05T05:21:42.027Z,29.52
2022-12-05T05:24:09.791Z,29.33
2022-12-05T05:26:40.588Z,30.00
2022-12-05T05:29:07.450Z,29.77
2022-12-05T05:31:34.027Z,30.40
2022-12-05T05:34:04.538Z,30.27
2022-12-05T05:36:35.650Z,29.33
2022-12-05T05:39:03.720Z,31.15
2022-12-05T05:41:37.145Z,30.70
2022-12-05T05:44:04.268Z,29.58
2022-12-05T05:46:33.110Z,31.15
2022-12-05T05:48:59.680Z,29.73
2022-12-05T05:51:27.999Z,30.55
2022-12-05T05:53:54.473Z,30.13
2022-12-05T05:56:22.166Z,29.92
2022-12-05T05:58:56.719Z,30.40
2022-12-05T06:01:23.275Z,29.55
2022-12-05T06:03:53.205Z,30.95
2022-12-05T06:06:21.561Z,32.05
2022-12-05T06:08:48.319Z,31.83
2022-12-05T06:11:24.591Z,32.88
2022-12-05T06:13:52.725Z,31.25
2022-12-05T06:16:19.669Z,32.53
2022-12-05T06:18:46.084Z,32.78
2022-12-05T06:21:16.136Z,31.08
2022-12-05T06:23:42.937Z,32.40
2022-12-05T06:26:12.067Z,30.48
2022-12-05T06:28:39.435Z,28.67
2022-12-05T06:31:14.016Z,29.85
2022-12-05T06:33:40.653Z,29.52
2022-12-05T06:36:09.348Z,29.90
2022-12-05T06:38:40.545Z,29.35
2022-12-05T06:41:11.027Z,28.77
2022-12-05T06:43:37.448Z,28.38
2022-12-05T06:46:08.512Z,28.33
2022-12-05T06:48:35.009Z,29.33
2022-12-05T06:51:01.438Z,27.75
2022-12-05T06:53:27.983Z,27.60
2022-12-05T06:56:02.224Z,26.88
2022-12-05T06:58:29.037Z,26.40
2022-12-05T07:01:14.240Z,26.67
2022-12-05T07:03:40.787Z,24.90
2022-12-05T07:06:07.640Z,25.17
2022-12-05T07:08:34.758Z,23.65
2022-12-05T07:11:01.898Z,24.88
2022-12-05T07:13:28.512Z,24.17
2022-12-05T07:15:55.218Z,24.30
2022-12-05T07:18:21.698Z,23.88
2022-12-05T07:21:14.894Z,23.63
2022-12-05T07:23:43.198Z,23.33
2022-12-05T07:26:12.439Z,22.55
2022-12-05T07:28:38.922Z,21.98
2022-12-05T07:31:09.752Z,21.95
2022-12-05T07:33:36.815Z,20.65
2022-12-05T07:36:09.422Z,21.75
2022-12-05T07:38:35.917Z,20.83
2022-12-05T07:41:10.320Z,20.45
2022-12-05T07:43:39.671Z,22.67
2022-12-05T07:46:07.080Z,20.85
2022-12-05T07:48:33.721Z,19.35
2022-12-05T07:51:01.777Z,22.85
2022-12-05T07:53:29.125Z,22.08
2022-12-05T07:55:55.515Z,20.00
2022-12-05T07:58:21.894Z,19.67
2022-12-05T08:00:48.377Z,18.90
2022-12-05T08:03:14.801Z,19.30
2022-12-05T08:05:41.200Z,19.27
2022-12-05T08:08:07.753Z,19.02
2022-12-05T08:10:35.418Z,18.63
2022-12-05T08:13:01.809Z,18.85
2022-12-05T08:15:28.221Z,17.85
2022-12-05T08:17:54.623Z,17.17
2022-12-05T08:20:21.046Z,18.40
2022-12-05T08:22:47.467Z,18.20
2022-12-05T08:25:13.850Z,17.55
2022-12-05T08:27:40.250Z,17.75
2022-12-05T08:30:07.128Z,18.08
2022-12-05T08:32:33.496Z,18.35
2022-12-05T08:34:59.886Z,17.35
2022-12-05T08:37:26.348Z,17.70
2022-12-05T08:39:52.758Z,17.48
2022-12-05T08:42:19.147Z,17.45
2022-12-05T08:44:45.576Z,16.77
2022-12-05T08:47:12.286Z,17.10
2022-12-05T08:49:38.672Z,17.58
2022-12-05T08:52:05.195Z,16.98
2022-12-05T08:54:31.551Z,16.45
2022-12-05T08:56:59.281Z,16.73
2022-12-05T08:59:25.687Z,17.05
2022-12-05T09:01:52.186Z,17.13
2022-12-05T09:04:18.664Z,17.15
2022-12-05T09:06:45.110Z,22.15
2022-12-05T09:09:12.485Z,24.40
2022-12-05T09:11:45.999Z,24.08
2022-12-05T09:14:13.470Z,23.02
2022-12-05T09:16:40.533Z,23.13
2022-12-05T09:19:12.836Z,21.42
2022-12-05T09:21:39.333Z,22.17
2022-12-05T09:24:05.729Z,22.40
2022-12-05T09:26:32.119Z,22.05
2022-12-05T09:28:58.543Z,22.20
2022-12-05T09:31:27.247Z,22.42
2022-12-05T09:33:54.490Z,22.45
2022-12-05T09:36:23.655Z,22.85
2022-12-05T09:38:50.954Z,25.00
2022-12-05T09:42:07.158Z,22.98
2022-12-05T09:44:42.722Z,21.20
2022-12-05T09:47:27.487Z,19.70
2022-12-05T09:50:14.674Z,20.08
2022-12-05T09:52:47.914Z,20.80
2022-12-05T09:55:18.846Z,22.13
2022-12-05T09:57:56.754Z,20.92
2022-12-05T10:00:23.524Z,20.40
2022-12-05T10:03:08.731Z,21.25
2022-12-05T10:05:54.673Z,22.83
2022-12-05T10:08:27.147Z,20.77
2022-12-05T10:13:22.826Z,19.17
2022-12-05T10:16:07.339Z,19.98
2022-12-05T10:18:41.092Z,21.45
2022-12-05T10:21:16.863Z,20.70
2022-12-05T10:23:58.261Z,23.40
2022-12-05T10:26:35.202Z,23.20
2022-12-05T10:29:23.464Z,22.27
2022-12-05T10:31:51.139Z,21.55
2022-12-05T10:34:31.084Z,19.75
2022-12-05T10:37:10.119Z,20.10
2022-12-05T10:39:37.460Z,20.55
2022-12-05T10:42:05.005Z,21.67
2022-12-05T10:44:32.523Z,20.17
2022-12-05T10:46:59.470Z,19.48
2022-12-05T10:49:26.628Z,18.52
2022-12-05T10:51:53.054Z,18.17
2022-12-05T10:54:25.004Z,18.20
2022-12-05T10:56:53.671Z,20.42
2022-12-05T10:59:25.620Z,19.48
2022-12-05T11:01:56.947Z,21.33
2022-12-05T11:04:30.668Z,21.75
2022-12-05T11:07:02.790Z,22.10
2022-12-05T11:09:33.908Z,22.08
2022-12-05T11:12:20.695Z,21.40
2022-12-05T11:14:57.456Z,21.67
2022-12-05T11:17:36.131Z,20.92
2022-12-05T11:20:24.156Z,20.85
2022-12-05T11:22:51.394Z,20.17
2022-12-05T11:25:36.971Z,20.70
2022-12-05T11:28:21.809Z,19.10
2022-12-05T11:31:11.551Z,17.60
2022-12-05T11:33:38.769Z,17.08
2022-12-05T11:36:22.220Z,17.90
2022-12-05T11:38:48.739Z,19.27
2022-12-05T11:41:53.576Z,19.33
2022-12-05T11:44:29.934Z,18.98
2022-12-05T11:47:18.056Z,20.00
2022-12-05T11:50:25.993Z,17.75
2022-12-05T11:53:10.649Z,18.70
2022-12-05T11:55:44.035Z,19.10
2022-12-05T11:58:48.981Z,16.80
2022-12-05T12:01:47.178Z,16.83
2022-12-05T12:04:29.607Z,15.60
2022-12-05T12:07:12.940Z,17.65
2022-12-05T12:10:03.554Z,17.88
2022-12-05T12:12:44.211Z,19.42
2022-12-05T12:15:31.131Z,19.23
2022-12-05T12:18:36.417Z,17.95
2022-12-05T12:21:25.801Z,20.00
2022-12-05T12:24:08.209Z,19.33
2022-12-05T12:26:58.110Z,18.67
2022-12-05T12:29:46.142Z,19.17
2022-12-05T12:32:34.070Z,18.35
2022-12-05T12:35:25.385Z,19.80
2022-12-05T12:38:18.121Z,20.17
2022-12-05T12:40:55.247Z,20.10
2022-12-05T12:46:55.953Z,21.50
2022-12-05T12:49:28.344Z,22.52
2022-12-05T12:52:12.570Z,18.13
2022-12-05T12:55:05.560Z,17.85
2022-12-05T12:58:04.058Z,20.65
2022-12-05T13:00:45.689Z,18.30
2022-12-05T13:03:31.748Z,18.73
2022-12-05T13:06:01.190Z,17.38
2022-12-05T13:08:53.872Z,18.88
2022-12-05T13:11:21.091Z,18.42
2022-12-05T13:13:53.052Z,17.50
2022-12-05T13:16:25.477Z,16.45
2022-12-05T13:18:52.112Z,18.38
2022-12-05T13:21:18.956Z,19.30
2022-12-05T13:23:50.385Z,18.95
2022-12-05T13:26:17.712Z,16.67
2022-12-05T13:28:53.768Z,16.42
2022-12-05T13:31:40.849Z,16.92
2022-12-05T13:34:37.297Z,17.65
2022-12-05T13:37:31.237Z,19.40
2022-12-05T13:40:16.706Z,16.75
2022-12-05T13:42:43.489Z,17.13
2022-12-05T13:45:15.113Z,16.58
2022-12-05T13:47:59.898Z,17.83
2022-12-05T13:50:43.233Z,17.33
2022-12-05T13:53:39.584Z,17.88
2022-12-05T13:56:11.971Z,16.55
2022-12-05T13:58:50.862Z,16.75
2022-12-05T14:01:26.537Z,16.80
2022-12-05T14:04:02.194Z,17.17
2022-12-05T14:06:34.767Z,17.63
2022-12-05T14:11:28.039Z,16.52
2022-12-05T14:13:57.996Z,17.80
2022-12-05T14:16:30.275Z,17.05
2022-12-05T14:19:13.301Z,17.38
2022-12-05T14:21:44.286Z,18.05
2022-12-05T14:24:29.178Z,19.00
2022-12-05T14:27:07.550Z,20.20
2022-12-05T14:29:59.604Z,21.45
2022-12-05T14:32:37.512Z,18.25
2022-12-05T14:35:12.313Z,17.77
2022-12-05T14:37:50.548Z,16.13
2022-12-05T14:40:28.718Z,17.10
2022-12-05T14:43:23.048Z,16.73
2022-12-05T14:45:52.487Z,16.52
2022-12-05T14:48:47.263Z,14.52
2022-12-05T14:51:32.463Z,14.35
2022-12-05T14:54:12.057Z,13.75
2022-12-05T14:56:43.491Z,13.55
2022-12-05T14:59:46.690Z,14.02
2022-12-05T15:02:21.000Z,16.42
2022-12-05T15:04:54.223Z,17.00
2022-12-05T15:07:35.058Z,17.23
2022-12-05T15:10:11.937Z,20.15
2022-12-05T15:12:41.168Z,23.15
2022-12-05T15:15:17.248Z,25.17
2022-12-05T15:17:50.690Z,22.02
2022-12-05T15:20:34.351Z,19.90
2022-12-05T15:23:39.668Z,21.77
2022-12-05T15:26:44.985Z,21.30
2022-12-05T15:29:07.191Z,20.10
2022-12-05T15:31:42.895Z,19.92
2022-12-05T15:34:19.923Z,21.73
2022-12-05T15:37:34.860Z,22.70
2022-12-05T15:40:05.833Z,21.52
2022-12-05T15:42:43.466Z,20.98
2022-12-05T15:45:15.930Z,24.55
2022-12-05T15:50:17.499Z,26.55
2022-12-05T15:52:45.670Z,32.10
2022-12-05T15:55:15.278Z,23.08
2022-12-05T15:57:45.905Z,20.55
2022-12-05T16:00:17.661Z,20.65
2022-12-05T16:02:47.511Z,21.23
2022-12-05T16:05:20.205Z,20.30
2022-12-05T16:07:46.780Z,21.05
2022-12-05T16:10:14.391Z,20.45
2022-12-05T16:12:41.416Z,21.15
2022-12-05T16:15:18.011Z,21.20
2022-12-05T16:17:52.225Z,21.35
2022-12-05T16:20:18.788Z,21.05
2022-12-05T16:22:48.332Z,20.70
2022-12-05T16:25:16.831Z,18.90
2022-12-05T16:27:44.075Z,18.52
2022-12-05T16:30:18.417Z,16.65
2022-12-05T16:32:46.265Z,20.35
2022-12-05T16:35:36.020Z,24.25
2022-12-05T16:38:07.227Z,20.83
2022-12-05T16:40:33.996Z,28.88
2022-12-05T16:43:32.915Z,25.45
2022-12-05T16:46:28.013Z,21.90
2022-12-05T16:49:13.424Z,23.10
2022-12-05T16:51:41.546Z,24.75
2022-12-05T16:54:08.197Z,24.42
2022-12-05T16:56:34.671Z,26.85
2022-12-05T16:59:05.471Z,23.45
2022-12-05T17:01:37.173Z,25.83
2022-12-05T17:04:05.681Z,24.73
2022-12-05T17:06:32.085Z,33.28
2022-12-05T17:08:59.123Z,45.30
2022-12-05T17:11:27.295Z,38.75
2022-12-05T17:13:54.903Z,72.45
2022-12-05T17:16:21.750Z,57.05
2022-12-05T17:18:48.223Z,36.47
2022-12-05T17:21:19.812Z,39.97
2022-12-05T17:23:48.131Z,23.17
2022-12-05T17:26:16.552Z,27.90
2022-12-05T17:28:42.993Z,31.55
2022-12-05T17:31:20.460Z,41.53
2022-12-05T17:33:47.426Z,27.52
2022-12-05T17:36:14.319Z,29.63
2022-12-05T17:38:41.232Z,32.75
2022-12-05T17:41:07.650Z,37.40
2022-12-05T17:43:34.459Z,29.88
2022-12-05T17:46:01.459Z,30.05
2022-12-05T17:48:27.855Z,31.67
2022-12-05T17:50:57.588Z,28.73
2022-12-05T17:53:24.293Z,27.38
2022-12-05T17:55:50.869Z,27.02
2022-12-05T17:58:17.704Z,27.83
2022-12-05T18:00:44.760Z,29.75
2022-12-05T18:03:16.456Z,29.40
2022-12-05T18:05:43.639Z,24.00
2022-12-05T18:08:10.835Z,22.48
2022-12-05T18:10:37.354Z,23.90
2022-12-05T18:13:03.804Z,24.45
2022-12-05T18:15:30.200Z,25.73
2022-12-05T18:17:56.808Z,24.95
2022-12-05T18:20:23.203Z,25.75
2022-12-05T18:22:51.045Z,23.52
2022-12-05T18:25:17.527Z,32.78
2022-12-05T18:27:43.928Z,25.42
2022-12-05T18:30:11.012Z,23.13
2022-12-05T18:32:37.505Z,23.10
2022-12-05T18:35:09.980Z,22.85
2022-12-05T18:37:39.433Z,22.23
2022-12-05T18:40:07.051Z,22.60
2022-12-05T18:42:33.452Z,23.00
2022-12-05T18:45:01.180Z,21.25
2022-12-05T18:47:27.799Z,23.48
2022-12-05T18:49:54.188Z,22.52
2022-12-05T18:52:20.744Z,22.33
2022-12-05T18:54:57.605Z,24.08
2022-12-05T18:57:33.540Z,22.33
2022-12-05T19:00:00.553Z,22.65
2022-12-05T19:02:27.074Z,23.38
2022-12-05T19:04:53.679Z,23.35
2022-12-05T19:07:20.136Z,22.73
2022-12-05T19:09:46.649Z,22.27
2022-12-05T19:12:13.009Z,24.58
2022-12-05T19:14:39.562Z,23.25
2022-12-05T19:17:06.077Z,23.38
2022-12-05T19:19:32.597Z,23.75
2022-12-05T19:21:59.216Z,26.35
2022-12-05T19:24:25.678Z,22.35
2022-12-05T19:26:52.093Z,22.15
2022-12-05T19:29:18.635Z,23.48
2022-12-05T19:31:45.311Z,23.75
2022-12-05T19:34:12.149Z,21.52
2022-12-05T19:36:41.155Z,26.83
2022-12-05T19:39:14.617Z,21.95
2022-12-05T19:41:41.757Z,21.52
2022-12-05T19:44:08.401Z,23.35
2022-12-05T19:46:35.534Z,21.00
2022-12-05T19:49:04.401Z,21.45
2022-12-05T19:51:31.927Z,22.73
2022-12-05T19:54:00.083Z,26.70
2022-12-05T19:56:27.871Z,30.45
2022-12-05T19:58:56.174Z,25.27
2022-12-05T20:01:31.494Z,22.77
2022-12-05T20:04:00.566Z,21.70
2022-12-05T20:06:31.295Z,20.38
2022-12-05T20:08:58.994Z,20.50
2022-12-05T20:11:26.369Z,18.80
2022-12-05T20:13:55.230Z,25.02
2022-12-05T20:16:23.023Z,25.63
2022-12-05T20:18:50.030Z,27.65
2022-12-05T20:21:18.947Z,28.63
2022-12-05T20:23:45.739Z,38.28
2022-12-05T20:26:15.381Z,29.00
2022-12-05T20:28:42.040Z,26.50
2022-12-05T20:31:09.706Z,21.70
2022-12-05T20:33:37.147Z,22.75
2022-12-05T20:36:09.014Z,21.27
2022-12-05T20:38:35.496Z,24.20
2022-12-05T20:41:03.842Z,26.60
2022-12-05T20:43:30.396Z,24.40
2022-12-05T20:45:57.323Z,24.65
2022-12-05T20:48:26.016Z,24.95
2022-12-05T20:50:54.216Z,26.17
2022-12-05T20:53:21.130Z,26.45
2022-12-05T20:55:47.629Z,25.38
2022-12-05T20:58:14.261Z,25.20
2022-12-05T21:00:40.734Z,23.50
2022-12-05T21:03:07.287Z,26.98
2022-12-05T21:05:37.155Z,24.35
2022-12-05T21:08:03.703Z,25.65
2022-12-05T21:10:30.137Z,28.17
2022-12-05T21:12:56.646Z,25.83
2022-12-05T21:15:23.074Z,22.75
2022-12-05T21:17:50.688Z,22.65
2022-12-05T21:20:17.117Z,21.98
2022-12-05T21:22:43.584Z,19.90
2022-12-05T21:25:10.015Z,19.63
2022-12-05T21:27:36.375Z,18.42
2022-12-05T21:30:02.776Z,17.27
2022-12-05T21:32:29.185Z,16.90
2022-12-05T21:34:55.545Z,17.65
2022-12-05T21:37:21.980Z,17.13
2022-12-05T21:39:48.462Z,17.02
2022-12-05T21:42:14.951Z,17.10
2022-12-05T21:44:41.650Z,14.93
2022-12-05T21:47:08.019Z,16.58
2022-12-05T21:49:34.453Z,16.20
2022-12-05T21:52:00.899Z,17.02
2022-12-05T21:54:27.341Z,16.35
2022-12-05T21:56:53.739Z,17.08
2022-12-05T21:59:20.142Z,16.60
2022-12-05T22:01:46.660Z,15.23
2022-12-05T22:04:13.108Z,15.70
2022-12-05T22:06:39.541Z,14.38
2022-12-05T22:09:05.956Z,16.27
2022-12-05T22:11:32.349Z,14.90
2022-12-05T22:13:58.805Z,14.93
2022-12-05T22:16:30.860Z,16.73
2022-12-05T22:18:59.071Z,16.90
2022-12-05T22:21:25.497Z,19.92
2022-12-05T22:23:51.913Z,20.92
2022-12-05T22:26:23.180Z,20.48
2022-12-05T22:28:50.740Z,20.30
2022-12-05T22:31:17.560Z,21.05
2022-12-05T22:33:44.792Z,19.23
2022-12-05T22:36:13.564Z,20.45
2022-12-05T22:38:43.459Z,20.85
2022-12-05T22:41:15.523Z,19.85
2022-12-05T22:43:43.820Z,20.30
2022-12-05T22:46:12.662Z,19.50
2022-12-05T22:48:39.104Z,22.08
2022-12-05T22:51:06.746Z,19.63
2022-12-05T22:53:33.449Z,18.63
2022-12-05T22:56:22.621Z,19.17
2022-12-05T22:58:49.312Z,20.10
2022-12-05T23:01:18.505Z,20.00
2022-12-05T23:03:46.761Z,19.05
2022-12-05T23:06:15.642Z,20.35
2022-12-05T23:08:43.356Z,19.88
2022-12-05T23:11:10.819Z,19.50
2022-12-05T23:13:37.978Z,20.00
2022-12-05T23:16:14.541Z,19.90
2022-12-05T23:18:47.683Z,19.10
2022-12-05T23:21:24.326Z,17.73
2022-12-05T23:23:52.277Z,19.15
2022-12-05T23:26:20.235Z,16.60
2022-12-05T23:28:46.746Z,20.05
2022-12-05T23:31:13.340Z,22.27
2022-12-05T23:33:40.396Z,20.27
2022-12-05T23:36:07.716Z,17.27
2022-12-05T23:38:35.241Z,15.98
2022-12-05T23:41:04.595Z,16.90
2022-12-05T23:43:31.924Z,17.17
2022-12-05T23:45:58.443Z,17.30
2022-12-05T23:48:25.285Z,17.40
2022-12-05T23:51:02.106Z,18.45
2022-12-05T23:53:30.148Z,17.00
2022-12-05T23:56:05.606Z,18.20
2022-12-05T23:58:32.139Z,17.50
